Time;durP1;ratioP1;P1;durP2;ratioP2;P2;SDS_P1;SDS_P2;PMS_P1;PMS_P2;Temp;Humidity;BMP_temperature;BMP_pressure;BME280_temperature;BME280_humidity;BME280_pressure;Samples;Min_cycle;Max_cycle;Signal;HPM_P1;HPM_P2
2023/09/23 00:00:56;;;;;;;6.60;1.60;;;;;;;;;;4982567;28;20034;-69
2023/09/23 00:03:23;;;;;;;7.13;1.65;;;;;;;;;;4976209;28;20431;-68
2023/09/23 00:05:49;;;;;;;3.05;1.50;;;;;;;;;;4976429;28;20044;-68
2023/09/23 00:08:18;;;;;;;3.75;1.73;;;;;;;;;;4971421;28;20598;-68
2023/09/23 00:10:44;;;;;;;6.00;1.40;;;;;;;;;;4974685;28;20463;-68
2023/09/23 00:13:09;;;;;;;3.25;1.70;;;;;;;;;;4974296;28;20038;-69
2023/09/23 00:15:35;;;;;;;1.88;1.38;;;;;;;;;;4970396;28;20041;-68
2023/09/23 00:18:02;;;;;;;3.22;1.35;;;;;;;;;;4978470;28;20462;-68
2023/09/23 00:20:27;;;;;;;6.53;1.55;;;;;;;;;;4975475;28;20045;-68
2023/09/23 00:22:52;;;;;;;3.42;1.60;;;;;;;;;;4973645;28;20039;-68
2023/09/23 00:25:18;;;;;;;5.07;1.60;;;;;;;;;;4974435;28;20039;-68
2023/09/23 00:27:48;;;;;;;3.97;1.52;;;;;;;;;;4976632;28;20073;-68
2023/09/23 00:30:14;;;;;;;4.72;1.90;;;;;;;;;;4974223;28;20019;-68
2023/09/23 00:32:41;;;;;;;5.30;1.60;;;;;;;;;;4978333;28;20582;-68
2023/09/23 00:35:10;;;;;;;4.25;1.70;;;;;;;;;;4980216;28;20030;-68
2023/09/23 00:37:36;;;;;;;5.68;1.75;;;;;;;;;;4976260;28;20030;-69
2023/09/23 00:40:03;;;;;;;6.22;2.00;;;;;;;;;;4970208;28;20450;-68
2023/09/23 00:42:28;;;;;;;5.72;1.77;;;;;;;;;;4973386;28;20472;-68
2023/09/23 00:44:54;;;;;;;7.15;1.95;;;;;;;;;;4976038;28;20610;-68
2023/09/23 00:47:19;;;;;;;6.00;1.95;;;;;;;;;;4976265;28;20130;-68
2023/09/23 00:49:46;;;;;;;4.80;2.05;;;;;;;;;;4975031;28;20042;-69
2023/09/23 00:52:14;;;;;;;4.93;1.60;;;;;;;;;;4974713;28;20456;-68
2023/09/23 00:54:40;;;;;;;4.65;2.00;;;;;;;;;;4974019;28;20150;-68
2023/09/23 00:57:07;;;;;;;5.50;1.83;;;;;;;;;;4974578;28;20018;-69
2023/09/23 00:59:36;;;;;;;4.20;1.63;;;;;;;;;;4981335;28;20026;-69
2023/09/23 01:02:02;;;;;;;6.57;1.90;;;;;;;;;;4972509;28;20030;-69
2023/09/23 01:04:28;;;;;;;5.05;1.67;;;;;;;;;;4981634;28;20034;-69
2023/09/23 01:06:53;;;;;;;7.50;1.70;;;;;;;;;;4975270;28;20045;-69
2023/09/23 01:09:21;;;;;;;4.55;1.60;;;;;;;;;;4978602;28;20046;-69
2023/09/23 01:11:49;;;;;;;8.15;2.08;;;;;;;;;;4974263;28;20023;-69
2023/09/23 01:14:15;;;;;;;4.72;1.50;;;;;;;;;;4978638;28;20038;-69
2023/09/23 01:16:41;;;;;;;6.03;1.50;;;;;;;;;;4974942;28;20093;-69
2023/09/23 01:19:09;;;;;;;6.18;1.55;;;;;;;;;;4973714;28;20154;-69
2023/09/23 01:21:34;;;;;;;3.28;1.77;;;;;;;;;;4973433;28;20042;-69
2023/09/23 01:24:00;;;;;;;3.88;1.67;;;;;;;;;;4974070;28;20025;-69
2023/09/23 01:26:25;;;;;;;2.85;1.73;;;;;;;;;;4973337;28;20030;-69
2023/09/23 01:28:51;;;;;;;2.05;1.63;;;;;;;;;;4974177;28;20038;-69
2023/09/23 01:31:21;;;;;;;4.20;1.40;;;;;;;;;;4973724;28;20030;-69
2023/09/23 01:33:47;;;;;;;3.88;1.58;;;;;;;;;;4969736;28;20608;-69
2023/09/23 01:36:12;;;;;;;5.07;1.52;;;;;;;;;;4976168;28;20037;-69
2023/09/23 01:38:40;;;;;;;9.10;1.58;;;;;;;;;;4997881;28;20439;-69
2023/09/23 01:41:06;;;;;;;2.58;1.35;;;;;;;;;;4973116;28;20146;-69
2023/09/23 01:43:31;;;;;;;3.47;1.50;;;;;;;;;;4973047;28;20160;-69
2023/09/23 01:46:02;;;;;;;3.83;1.38;;;;;;;;;;4971590;28;20054;-69
2023/09/23 01:48:29;;;;;;;7.18;1.88;;;;;;;;;;4976651;28;20133;-69
2023/09/23 01:50:56;;;;;;;7.50;1.70;;;;;;;;;;4974299;28;20069;-69
2023/09/23 01:53:24;;;;;;;4.45;1.90;;;;;;;;;;4972374;28;20063;-69
2023/09/23 01:55:49;;;;;;;3.40;1.90;;;;;;;;;;4979754;28;20096;-69
2023/09/23 01:58:14;;;;;;;8.93;1.80;;;;;;;;;;4975308;28;20039;-69
2023/09/23 02:00:40;;;;;;;3.20;1.65;;;;;;;;;;4974451;28;20133;-69
2023/09/23 02:03:06;;;;;;;7.18;1.90;;;;;;;;;;4972571;28;20027;-69
2023/09/23 02:05:32;;;;;;;7.82;2.30;;;;;;;;;;4976218;28;20025;-69
2023/09/23 02:07:57;;;;;;;6.78;2.03;;;;;;;;;;4969355;28;20046;-69
2023/09/23 02:10:26;;;;;;;6.95;2.00;;;;;;;;;;4975187;28;20415;-69
2023/09/23 02:12:52;;;;;;;6.30;2.10;;;;;;;;;;4970672;28;20046;-69
2023/09/23 02:15:18;;;;;;;5.95;2.10;;;;;;;;;;4971680;28;20015;-69
2023/09/23 02:17:48;;;;;;;6.35;2.50;;;;;;;;;;4975299;28;20115;-69
2023/09/23 02:20:24;;;;;;;4.95;2.17;;;;;;;;;;4976818;28;20133;-69
2023/09/23 02:22:55;;;;;;;5.22;2.25;;;;;;;;;;4977616;28;20133;-69
2023/09/23 02:25:24;;;;;;;7.13;2.05;;;;;;;;;;4980849;28;20046;-69
2023/09/23 02:27:51;;;;;;;7.03;2.08;;;;;;;;;;4969222;28;20054;-69
2023/09/23 02:30:16;;;;;;;4.32;1.98;;;;;;;;;;4970568;28;20030;-69
2023/09/23 02:32:46;;;;;;;6.60;1.90;;;;;;;;;;4973818;28;20045;-69
2023/09/23 02:35:13;;;;;;;3.33;1.80;;;;;;;;;;4972258;28;20523;-69
2023/09/23 02:37:44;;;;;;;7.15;2.20;;;;;;;;;;4972311;28;20049;-69
2023/09/23 02:40:17;;;;;;;4.85;1.73;;;;;;;;;;4972132;28;20517;-69
2023/09/23 02:42:47;;;;;;;7.40;2.03;;;;;;;;;;4967437;28;20081;-69
2023/09/23 02:45:15;;;;;;;5.57;1.98;;;;;;;;;;4969681;28;20081;-69
2023/09/23 02:47:43;;;;;;;4.63;2.05;;;;;;;;;;4980481;28;20088;-69
2023/09/23 02:50:10;;;;;;;6.53;2.22;;;;;;;;;;4975392;28;20100;-69
2023/09/23 02:52:40;;;;;;;3.33;1.83;;;;;;;;;;4973541;28;20514;-69
2023/09/23 02:55:07;;;;;;;5.40;2.15;;;;;;;;;;4971424;28;20042;-69
2023/09/23 02:57:35;;;;;;;6.68;2.00;;;;;;;;;;4973928;28;20909;-69
2023/09/23 03:00:12;;;;;;;4.53;2.15;;;;;;;;;;4969533;28;20033;-69
2023/09/23 03:02:38;;;;;;;6.00;2.08;;;;;;;;;;4974488;28;20449;-69
2023/09/23 03:05:08;;;;;;;3.72;1.70;;;;;;;;;;4974317;28;20042;-69
2023/09/23 03:07:33;;;;;;;3.92;2.00;;;;;;;;;;4973313;28;20452;-68
2023/09/23 03:10:01;;;;;;;3.85;1.67;;;;;;;;;;4968518;28;20567;-69
2023/09/23 03:12:38;;;;;;;4.45;1.60;;;;;;;;;;4974210;28;20035;-68
2023/09/23 03:15:14;;;;;;;4.55;1.70;;;;;;;;;;4970585;28;20027;-69
2023/09/23 03:17:50;;;;;;;4.90;2.28;;;;;;;;;;4967483;28;20043;-69
2023/09/23 03:20:21;;;;;;;4.13;1.80;;;;;;;;;;4973729;28;20038;-69
2023/09/23 03:22:47;;;;;;;2.75;1.80;;;;;;;;;;4970109;28;20035;-69
2023/09/23 03:25:13;;;;;;;5.18;1.85;;;;;;;;;;4974318;28;20039;-68
2023/09/23 03:27:39;;;;;;;5.82;2.28;;;;;;;;;;4976008;28;20527;-68
2023/09/23 03:30:11;;;;;;;4.10;2.30;;;;;;;;;;4976889;28;20113;-69
2023/09/23 03:32:37;;;;;;;3.00;2.00;;;;;;;;;;4975129;28;20465;-68
2023/09/23 03:35:03;;;;;;;4.50;1.90;;;;;;;;;;4975604;28;20117;-68
2023/09/23 03:37:29;;;;;;;5.10;1.88;;;;;;;;;;4975695;28;20035;-69
2023/09/23 03:39:55;;;;;;;4.15;1.98;;;;;;;;;;4981681;28;20054;-68
2023/09/23 03:42:21;;;;;;;7.80;2.00;;;;;;;;;;4977838;28;20529;-68
2023/09/23 03:44:46;;;;;;;4.90;1.90;;;;;;;;;;4980025;28;20045;-68
2023/09/23 03:47:12;;;;;;;4.03;1.90;;;;;;;;;;4983033;28;20093;-69
2023/09/23 03:49:37;;;;;;;4.22;1.83;;;;;;;;;;4982674;28;20042;-68
2023/09/23 03:52:05;;;;;;;4.80;1.70;;;;;;;;;;4979809;28;20054;-69
2023/09/23 03:54:33;;;;;;;5.97;2.10;;;;;;;;;;4978381;28;20046;-69
2023/09/23 03:56:58;;;;;;;4.22;1.73;;;;;;;;;;4972335;28;20034;-69
2023/09/23 03:59:24;;;;;;;4.10;1.95;;;;;;;;;;4978302;28;20057;-69
2023/09/23 04:01:50;;;;;;;5.22;1.95;;;;;;;;;;4972833;28;20427;-69
2023/09/23 04:04:17;;;;;;;4.28;1.55;;;;;;;;;;4974388;28;20035;-69
2023/09/23 04:06:43;;;;;;;3.08;1.50;;;;;;;;;;4980299;28;20061;-69
2023/09/23 04:09:12;;;;;;;7.30;1.85;;;;;;;;;;4969977;28;20026;-69
2023/09/23 04:11:37;;;;;;;2.58;1.73;;;;;;;;;;4976283;28;20468;-69
2023/09/23 04:14:02;;;;;;;4.40;1.77;;;;;;;;;;4974499;28;20038;-69
2023/09/23 04:16:28;;;;;;;4.68;1.70;;;;;;;;;;4978935;28;20404;-69
2023/09/23 04:18:53;;;;;;;11.52;2.00;;;;;;;;;;4977789;28;20046;-69
2023/09/23 04:21:21;;;;;;;5.97;2.03;;;;;;;;;;4976794;28;20038;-69
2023/09/23 04:23:48;;;;;;;4.22;1.73;;;;;;;;;;4976084;28;20058;-69
2023/09/23 04:26:14;;;;;;;5.53;1.70;;;;;;;;;;4974187;28;20046;-69
2023/09/23 04:28:39;;;;;;;8.65;2.38;;;;;;;;;;4970620;28;20047;-69
2023/09/23 04:31:06;;;;;;;4.50;1.65;;;;;;;;;;4977334;28;20068;-69
2023/09/23 04:33:32;;;;;;;4.63;1.92;;;;;;;;;;4971827;28;20853;-68
2023/09/23 04:35:58;;;;;;;5.95;1.98;;;;;;;;;;4974805;28;20030;-69
2023/09/23 04:38:26;;;;;;;7.20;2.08;;;;;;;;;;4971280;28;20516;-68
2023/09/23 04:40:52;;;;;;;4.68;2.00;;;;;;;;;;4975401;28;20112;-69
2023/09/23 04:43:17;;;;;;;4.30;1.92;;;;;;;;;;4967079;28;20496;-68
2023/09/23 04:45:44;;;;;;;8.20;2.28;;;;;;;;;;4974696;28;20725;-68
2023/09/23 04:48:09;;;;;;;5.30;2.17;;;;;;;;;;4974528;28;20035;-69
2023/09/23 04:50:38;;;;;;;5.15;2.25;;;;;;;;;;4974530;28;20073;-68
2023/09/23 04:53:04;;;;;;;5.47;2.60;;;;;;;;;;4980890;28;20068;-68
2023/09/23 04:55:30;;;;;;;11.70;3.00;;;;;;;;;;4974762;28;20081;-68
2023/09/23 04:57:55;;;;;;;6.75;2.80;;;;;;;;;;4981820;28;20096;-69
2023/09/23 05:00:21;;;;;;;4.13;2.20;;;;;;;;;;4979654;28;20058;-69
2023/09/23 05:02:51;;;;;;;6.05;2.60;;;;;;;;;;4976419;28;20026;-68
2023/09/23 05:05:17;;;;;;;5.55;2.70;;;;;;;;;;4973868;28;20642;-69
2023/09/23 05:07:42;;;;;;;6.38;2.85;;;;;;;;;;4977524;28;20069;-69
2023/09/23 05:10:09;;;;;;;8.82;2.60;;;;;;;;;;4979942;28;20054;-68
2023/09/23 05:12:35;;;;;;;9.98;2.53;;;;;;;;;;4976494;28;20139;-69
2023/09/23 05:15:00;;;;;;;5.05;2.45;;;;;;;;;;4977435;28;20125;-69
2023/09/23 05:17:28;;;;;;;5.45;2.22;;;;;;;;;;4977270;28;20042;-69
2023/09/23 05:19:53;;;;;;;7.60;2.42;;;;;;;;;;4974370;28;20536;-69
2023/09/23 05:22:19;;;;;;;4.55;2.28;;;;;;;;;;4973220;28;20049;-70
2023/09/23 05:24:50;;;;;;;7.82;2.47;;;;;;;;;;4980670;28;20124;-69
2023/09/23 05:27:16;;;;;;;6.15;2.65;;;;;;;;;;4973412;28;20035;-69
2023/09/23 05:29:44;;;;;;;5.20;2.22;;;;;;;;;;4974764;28;20129;-69
2023/09/23 05:32:10;;;;;;;4.63;2.55;;;;;;;;;;4977765;28;20054;-69
2023/09/23 05:34:39;;;;;;;6.95;2.80;;;;;;;;;;4975813;28;20038;-69
2023/09/23 05:37:06;;;;;;;8.15;2.30;;;;;;;;;;4975086;28;20193;-69
2023/09/23 05:39:31;;;;;;;9.70;2.85;;;;;;;;;;4970943;28;20056;-69
2023/09/23 05:41:56;;;;;;;3.83;2.05;;;;;;;;;;4978216;28;20062;-69
2023/09/23 05:44:23;;;;;;;6.35;1.92;;;;;;;;;;4971621;28;20714;-69
2023/09/23 05:46:48;;;;;;;5.68;2.10;;;;;;;;;;4973472;28;20252;-69
2023/09/23 05:49:14;;;;;;;7.10;2.47;;;;;;;;;;4975890;28;20038;-69
2023/09/23 05:51:39;;;;;;;7.72;2.35;;;;;;;;;;4975314;28;20053;-69
2023/09/23 05:54:07;;;;;;;8.40;2.65;;;;;;;;;;4975868;28;20072;-69
2023/09/23 05:56:32;;;;;;;5.88;2.58;;;;;;;;;;4968097;28;20034;-69
2023/09/23 05:58:58;;;;;;;6.10;2.67;;;;;;;;;;4975631;28;20852;-69
2023/09/23 06:01:23;;;;;;;6.72;1.83;;;;;;;;;;4976299;28;20042;-69
2023/09/23 06:03:50;;;;;;;3.38;1.85;;;;;;;;;;4973248;28;20420;-68
2023/09/23 06:06:15;;;;;;;5.40;2.17;;;;;;;;;;4972799;28;20119;-69
2023/09/23 06:08:40;;;;;;;4.53;1.60;;;;;;;;;;4978416;28;20022;-69
2023/09/23 06:11:07;;;;;;;5.50;1.85;;;;;;;;;;4978891;28;20646;-69
2023/09/23 06:13:34;;;;;;;9.10;1.98;;;;;;;;;;4969680;28;20050;-68
2023/09/23 06:16:06;;;;;;;4.20;1.95;;;;;;;;;;4972226;28;20114;-69
2023/09/23 06:18:33;;;;;;;7.15;2.08;;;;;;;;;;4973478;28;20586;-69
2023/09/23 06:20:59;;;;;;;4.43;1.88;;;;;;;;;;4969718;28;20520;-69
2023/09/23 06:23:25;;;;;;;9.43;2.22;;;;;;;;;;4971852;28;20546;-69
2023/09/23 06:26:00;;;;;;;5.53;1.65;;;;;;;;;;4970907;28;20066;-69
2023/09/23 06:28:26;;;;;;;8.13;1.95;;;;;;;;;;4968006;28;20062;-69
2023/09/23 06:30:52;;;;;;;4.40;1.80;;;;;;;;;;4975342;28;20405;-69
2023/09/23 06:33:18;;;;;;;8.25;1.67;;;;;;;;;;4975840;28;20523;-69
2023/09/23 06:35:43;;;;;;;4.65;2.15;;;;;;;;;;4978912;28;20027;-69
2023/09/23 06:38:09;;;;;;;4.03;1.67;;;;;;;;;;4974363;28;20047;-69
2023/09/23 06:40:34;;;;;;;4.40;2.13;;;;;;;;;;4971707;28;20473;-69
2023/09/23 06:42:59;;;;;;;6.22;1.98;;;;;;;;;;4969282;28;20046;-69
2023/09/23 06:45:25;;;;;;;7.05;2.13;;;;;;;;;;4970910;28;20039;-68
2023/09/23 06:47:50;;;;;;;4.20;1.90;;;;;;;;;;4976066;28;20583;-69
2023/09/23 06:50:16;;;;;;;2.92;1.45;;;;;;;;;;4972572;28;20048;-69
2023/09/23 06:52:42;;;;;;;4.53;2.08;;;;;;;;;;4973909;28;20042;-69
2023/09/23 06:55:08;;;;;;;4.00;1.65;;;;;;;;;;4978969;28;20471;-69
2023/09/23 06:57:35;;;;;;;5.28;2.38;;;;;;;;;;4974353;28;20045;-69
2023/09/23 07:00:01;;;;;;;5.47;2.00;;;;;;;;;;4975838;28;20199;-69
2023/09/23 07:02:27;;;;;;;4.53;1.80;;;;;;;;;;4982764;28;20038;-69
2023/09/23 07:04:52;;;;;;;2.50;1.25;;;;;;;;;;4972505;28;20050;-68
2023/09/23 07:07:17;;;;;;;4.22;2.08;;;;;;;;;;4978882;28;20042;-68
2023/09/23 07:09:43;;;;;;;7.03;1.63;;;;;;;;;;4976181;28;20377;-68
2023/09/23 07:12:12;;;;;;;7.65;2.13;;;;;;;;;;4977917;28;20030;-68
2023/09/23 07:14:38;;;;;;;4.07;1.60;;;;;;;;;;4984100;28;20022;-69
2023/09/23 07:17:04;;;;;;;4.25;1.88;;;;;;;;;;4980694;28;20047;-69
2023/09/23 07:19:29;;;;;;;3.25;1.73;;;;;;;;;;4977151;28;20049;-69
2023/09/23 07:21:55;;;;;;;8.18;2.10;;;;;;;;;;4978441;28;20524;-69
2023/09/23 07:24:20;;;;;;;4.32;1.70;;;;;;;;;;4978468;28;20030;-69
2023/09/23 07:26:46;;;;;;;7.40;2.10;;;;;;;;;;4982628;28;20034;-69
2023/09/23 07:29:11;;;;;;;5.30;2.20;;;;;;;;;;4986787;28;20088;-69
2023/09/23 07:31:36;;;;;;;7.60;1.83;;;;;;;;;;4973765;28;20570;-69
2023/09/23 07:34:02;;;;;;;5.03;1.95;;;;;;;;;;4970076;28;20975;-69
2023/09/23 07:36:27;;;;;;;2.80;1.40;;;;;;;;;;4970261;28;20891;-69
2023/09/23 07:38:52;;;;;;;3.33;1.95;;;;;;;;;;4978836;28;20033;-69
2023/09/23 07:41:18;;;;;;;5.10;1.85;;;;;;;;;;4974405;28;20664;-69
2023/09/23 07:43:43;;;;;;;3.08;1.77;;;;;;;;;;4974648;28;20057;-71
2023/09/23 07:46:09;;;;;;;6.28;1.83;;;;;;;;;;4976469;28;20042;-70
2023/09/23 07:48:34;;;;;;;4.00;1.70;;;;;;;;;;4980676;28;20050;-69
2023/09/23 07:50:59;;;;;;;8.18;2.00;;;;;;;;;;4974253;28;20030;-70
2023/09/23 07:53:25;;;;;;;6.13;2.05;;;;;;;;;;4975827;28;20097;-69
2023/09/23 07:55:50;;;;;;;6.05;2.22;;;;;;;;;;4979787;28;20049;-68
2023/09/23 07:58:16;;;;;;;5.63;1.85;;;;;;;;;;4981929;28;20034;-69
2023/09/23 08:00:41;;;;;;;5.50;2.42;;;;;;;;;;4982752;28;20046;-69
2023/09/23 08:03:08;;;;;;;3.00;1.88;;;;;;;;;;4983898;28;20041;-69
2023/09/23 08:05:33;;;;;;;3.70;1.73;;;;;;;;;;4975813;28;20720;-69
2023/09/23 08:07:59;;;;;;;6.05;2.42;;;;;;;;;;4975250;28;20035;-69
2023/09/23 08:10:24;;;;;;;4.18;1.63;;;;;;;;;;4972111;28;20038;-69
2023/09/23 08:12:51;;;;;;;4.57;1.77;;;;;;;;;;4972138;28;20121;-69
2023/09/23 08:15:16;;;;;;;6.82;2.10;;;;;;;;;;4976660;28;20058;-69
2023/09/23 08:17:42;;;;;;;6.53;2.30;;;;;;;;;;4978770;28;20072;-69
2023/09/23 08:20:18;;;;;;;4.78;1.90;;;;;;;;;;4973541;28;20061;-69
2023/09/23 08:22:55;;;;;;;6.15;1.95;;;;;;;;;;4975761;28;20129;-69
2023/09/23 08:25:20;;;;;;;7.70;2.20;;;;;;;;;;4974311;28;20039;-69
2023/09/23 08:27:46;;;;;;;4.50;1.90;;;;;;;;;;4974994;28;20068;-68
2023/09/23 08:30:12;;;;;;;4.28;2.00;;;;;;;;;;4975669;28;20072;-69
2023/09/23 08:32:39;;;;;;;5.68;2.10;;;;;;;;;;4973257;28;20483;-69
2023/09/23 08:35:06;;;;;;;2.97;1.60;;;;;;;;;;4980621;28;20122;-68
2023/09/23 08:37:32;;;;;;;6.50;1.48;;;;;;;;;;4981073;28;20483;-69
2023/09/23 08:39:57;;;;;;;4.20;1.85;;;;;;;;;;4972101;28;20038;-69
2023/09/23 08:42:27;;;;;;;10.10;2.15;;;;;;;;;;4977396;28;20436;-68
2023/09/23 08:44:53;;;;;;;4.93;1.60;;;;;;;;;;4978152;28;20121;-69
2023/09/23 08:47:19;;;;;;;5.43;1.65;;;;;;;;;;4978986;28;20141;-69
2023/09/23 08:49:49;;;;;;;6.78;1.45;;;;;;;;;;4980485;28;20050;-69
2023/09/23 08:52:18;;;;;;;2.72;1.65;;;;;;;;;;4979800;28;20046;-69
2023/09/23 08:54:49;;;;;;;5.57;1.52;;;;;;;;;;4974600;28;20058;-70
2023/09/23 08:57:17;;;;;;;6.30;1.27;;;;;;;;;;4981042;28;20504;-68
2023/09/23 08:59:43;;;;;;;8.05;1.50;;;;;;;;;;4976868;28;20022;-68
2023/09/23 09:02:10;;;;;;;3.67;1.30;;;;;;;;;;4974441;28;20038;-68
2023/09/23 09:04:36;;;;;;;8.52;2.38;;;;;;;;;;4970863;28;20085;-69
2023/09/23 09:07:02;;;;;;;5.30;1.60;;;;;;;;;;4983156;28;20062;-69
2023/09/23 09:09:27;;;;;;;4.70;1.80;;;;;;;;;;4974224;28;20034;-69
2023/09/23 09:11:54;;;;;;;4.93;1.50;;;;;;;;;;4974240;28;20030;-69
2023/09/23 09:14:21;;;;;;;4.38;1.40;;;;;;;;;;4974344;28;20133;-69
2023/09/23 09:16:47;;;;;;;6.13;1.73;;;;;;;;;;4970921;28;20038;-69
2023/09/23 09:19:12;;;;;;;3.67;1.30;;;;;;;;;;4975556;28;20159;-69
2023/09/23 09:21:38;;;;;;;4.22;1.50;;;;;;;;;;4980023;28;20465;-69
2023/09/23 09:24:07;;;;;;;7.07;1.52;;;;;;;;;;4982668;28;20381;-69
2023/09/23 09:26:35;;;;;;;4.80;1.10;;;;;;;;;;4979196;28;20057;-68
2023/09/23 09:29:01;;;;;;;4.60;2.00;;;;;;;;;;4972704;28;20129;-69
2023/09/23 09:31:32;;;;;;;5.20;1.50;;;;;;;;;;4973539;28;20048;-69
2023/09/23 09:34:11;;;;;;;5.28;1.70;;;;;;;;;;4976884;28;20683;-68
2023/09/23 09:36:38;;;;;;;6.13;1.50;;;;;;;;;;4974070;28;20054;-68
2023/09/23 09:39:10;;;;;;;7.15;2.13;;;;;;;;;;4971226;28;20027;-68
2023/09/23 09:41:50;;;;;;;5.30;2.60;;;;;;;;;;5017425;28;20420;-69
2023/09/23 09:44:16;;;;;;;5.25;2.75;;;;;;;;;;5004452;28;20033;-69
2023/09/23 09:46:43;;;;;;;7.05;2.65;;;;;;;;;;5008051;28;20042;-69
2023/09/23 09:49:09;;;;;;;5.45;2.60;;;;;;;;;;5015717;28;20045;-69
2023/09/23 09:51:36;;;;;;;6.47;3.15;;;;;;;;;;5017677;28;20041;-69
2023/09/23 09:54:04;;;;;;;8.20;2.92;;;;;;;;;;5008984;28;20033;-70
2023/09/23 09:56:32;;;;;;;9.95;3.35;;;;;;;;;;5012603;28;20033;-69
2023/09/23 09:59:00;;;;;;;9.77;3.60;;;;;;;;;;5011729;28;20033;-69
2023/09/23 10:01:25;;;;;;;9.40;3.78;;;;;;;;;;5011715;28;20061;-70
2023/09/23 10:03:53;;;;;;;9.00;3.72;;;;;;;;;;5016284;28;20076;-71
2023/09/23 10:06:19;;;;;;;7.72;3.22;;;;;;;;;;5033450;28;20071;-71
2023/09/23 10:08:48;;;;;;;5.85;2.20;;;;;;;;;;5030104;28;20021;-71
2023/09/23 10:11:14;;;;;;;6.15;2.22;;;;;;;;;;5031727;28;20515;-71
2023/09/23 10:13:42;;;;;;;4.75;2.60;;;;;;;;;;5031178;28;20572;-71
2023/09/23 10:16:18;;;;;;;7.93;2.45;;;;;;;;;;5027431;28;20511;-71
2023/09/23 10:18:53;;;;;;;4.28;2.30;;;;;;;;;;5031793;28;20099;-71
2023/09/23 10:21:23;;;;;;;6.63;3.10;;;;;;;;;;5038875;28;20025;-70
2023/09/23 10:23:51;;;;;;;4.55;2.35;;;;;;;;;;5026181;28;20072;-71
2023/09/23 10:26:19;;;;;;;4.85;2.15;;;;;;;;;;5027413;28;20033;-69
2023/09/23 10:28:58;;;;;;;5.35;2.45;;;;;;;;;;5033078;28;20048;-70
2023/09/23 10:31:29;;;;;;;2.13;1.52;;;;;;;;;;5024668;28;20068;-71
2023/09/23 10:33:55;;;;;;;8.68;1.60;;;;;;;;;;5032822;28;20048;-70
2023/09/23 10:36:21;;;;;;;9.93;2.00;;;;;;;;;;5036394;28;20139;-70
2023/09/23 10:38:47;;;;;;;2.53;1.42;;;;;;;;;;5030016;28;20521;-71
2023/09/23 10:41:12;;;;;;;4.82;1.63;;;;;;;;;;5029765;28;20050;-71
2023/09/23 10:43:38;;;;;;;4.00;1.50;;;;;;;;;;5033023;28;20048;-70
2023/09/23 10:46:05;;;;;;;2.92;1.15;;;;;;;;;;5044013;28;20037;-71
2023/09/23 10:48:31;;;;;;;2.30;1.05;;;;;;;;;;5040630;28;20033;-71
2023/09/23 10:50:57;;;;;;;1.92;1.00;;;;;;;;;;5023269;28;20551;-69
2023/09/23 10:53:22;;;;;;;6.30;1.30;;;;;;;;;;5018884;28;20037;-69
2023/09/23 10:55:49;;;;;;;3.88;1.33;;;;;;;;;;5015192;28;20033;-70
2023/09/23 10:58:15;;;;;;;2.85;1.20;;;;;;;;;;5012775;28;20037;-70
2023/09/23 11:00:41;;;;;;;14.07;1.20;;;;;;;;;;5000526;28;20049;-69
2023/09/23 11:03:11;;;;;;;3.60;1.23;;;;;;;;;;4993851;28;20030;-69
2023/09/23 11:05:38;;;;;;;3.33;1.10;;;;;;;;;;5001064;28;20025;-70
2023/09/23 11:08:14;;;;;;;1.90;0.93;;;;;;;;;;5006595;28;20106;-70
2023/09/23 11:10:42;;;;;;;3.15;1.20;;;;;;;;;;5002142;28;20029;-70
2023/09/23 11:13:11;;;;;;;6.63;1.10;;;;;;;;;;5003197;28;20558;-69
2023/09/23 11:15:38;;;;;;;5.32;1.10;;;;;;;;;;5018165;28;20064;-69
2023/09/23 11:18:10;;;;;;;3.97;1.05;;;;;;;;;;5009991;28;20025;-70
2023/09/23 11:20:38;;;;;;;2.42;1.30;;;;;;;;;;5012845;28;20046;-69
2023/09/23 11:23:05;;;;;;;2.72;1.02;;;;;;;;;;5012919;28;20125;-71
2023/09/23 11:25:36;;;;;;;1.55;0.90;;;;;;;;;;5004289;28;20085;-70
2023/09/23 11:28:02;;;;;;;4.43;1.10;;;;;;;;;;5007228;28;20041;-70
2023/09/23 11:30:28;;;;;;;1.80;0.93;;;;;;;;;;4996508;28;20393;-70
2023/09/23 11:32:54;;;;;;;4.53;1.17;;;;;;;;;;5012404;28;20283;-70
2023/09/23 11:35:20;;;;;;;1.88;1.23;;;;;;;;;;5013207;28;21714;-70
2023/09/23 11:37:47;;;;;;;2.78;1.00;;;;;;;;;;5014978;28;20493;-70
2023/09/23 11:40:14;;;;;;;3.80;1.20;;;;;;;;;;5014606;28;20053;-70
2023/09/23 11:42:40;;;;;;;2.47;0.80;;;;;;;;;;5011434;28;20120;-70
2023/09/23 11:45:07;;;;;;;2.25;1.00;;;;;;;;;;5013294;28;20238;-70
2023/09/23 11:47:32;;;;;;;2.83;1.00;;;;;;;;;;5015320;28;20041;-70
2023/09/23 11:49:57;;;;;;;1.63;0.90;;;;;;;;;;5013680;28;20033;-70
2023/09/23 11:52:23;;;;;;;2.33;0.90;;;;;;;;;;5016796;28;20996;-71
2023/09/23 11:54:48;;;;;;;3.83;0.95;;;;;;;;;;5017363;28;20037;-71
2023/09/23 11:57:14;;;;;;;8.82;1.13;;;;;;;;;;5016960;28;20061;-70
2023/09/23 11:59:40;;;;;;;2.47;1.10;;;;;;;;;;5017064;28;20083;-69
2023/09/23 12:02:08;;;;;;;2.08;0.98;;;;;;;;;;5017935;28;20073;-70
2023/09/23 12:04:33;;;;;;;2.47;1.33;;;;;;;;;;5012295;28;20042;-70
2023/09/23 12:06:59;;;;;;;2.35;0.90;;;;;;;;;;5010718;28;20037;-70
2023/09/23 12:09:24;;;;;;;1.25;0.80;;;;;;;;;;5023638;28;20038;-70
2023/09/23 12:11:51;;;;;;;4.15;1.05;;;;;;;;;;5028091;28;20053;-70
2023/09/23 12:14:19;;;;;;;3.53;1.83;;;;;;;;;;5016477;28;20087;-69
2023/09/23 12:16:44;;;;;;;2.40;0.95;;;;;;;;;;5021258;28;20045;-69
2023/09/23 12:19:10;;;;;;;2.90;0.80;;;;;;;;;;5018701;28;20143;-69
2023/09/23 12:21:35;;;;;;;3.03;1.00;;;;;;;;;;5011469;28;20076;-70
2023/09/23 12:24:03;;;;;;;2.72;1.00;;;;;;;;;;5006130;28;20025;-70
2023/09/23 12:26:28;;;;;;;3.65;0.85;;;;;;;;;;5010758;28;20037;-70
2023/09/23 12:28:54;;;;;;;4.45;1.08;;;;;;;;;;5012987;28;20569;-70
2023/09/23 12:31:19;;;;;;;3.40;0.90;;;;;;;;;;5013026;28;20459;-70
2023/09/23 12:33:45;;;;;;;2.58;1.10;;;;;;;;;;5014015;28;20042;-70
2023/09/23 12:36:11;;;;;;;4.22;1.20;;;;;;;;;;5008156;28;20277;-70
2023/09/23 12:38:37;;;;;;;4.85;1.30;;;;;;;;;;5013659;28;20062;-69
2023/09/23 12:41:02;;;;;;;5.03;1.15;;;;;;;;;;5011402;28;20096;-69
2023/09/23 12:43:28;;;;;;;3.80;1.40;;;;;;;;;;5016347;28;20868;-69
2023/09/23 12:45:53;;;;;;;4.05;1.40;;;;;;;;;;5020697;28;20045;-70
2023/09/23 12:48:19;;;;;;;4.45;1.63;;;;;;;;;;5009889;28;20541;-71
2023/09/23 12:50:44;;;;;;;2.75;1.70;;;;;;;;;;5013666;28;20483;-69
2023/09/23 12:53:09;;;;;;;9.15;3.72;;;;;;;;;;5007738;28;20128;-69
2023/09/23 12:55:35;;;;;;;15.75;7.90;;;;;;;;;;5007118;28;20132;-69
2023/09/23 12:58:00;;;;;;;10.05;3.78;;;;;;;;;;5020050;28;20156;-69
2023/09/23 13:00:26;;;;;;;3.88;1.65;;;;;;;;;;5021810;28;20131;-69
2023/09/23 13:02:52;;;;;;;2.92;1.13;;;;;;;;;;5006314;28;20029;-69
2023/09/23 13:05:18;;;;;;;4.30;1.30;;;;;;;;;;5010554;28;20511;-69
2023/09/23 13:07:44;;;;;;;1.83;1.00;;;;;;;;;;5013230;28;20123;-69
2023/09/23 13:10:11;;;;;;;4.80;1.70;;;;;;;;;;5014152;28;20680;-69
2023/09/23 13:12:40;;;;;;;2.38;1.30;;;;;;;;;;5009461;28;20785;-68
2023/09/23 13:15:06;;;;;;;3.17;1.88;;;;;;;;;;5018011;28;20041;-69
2023/09/23 13:17:32;;;;;;;7.57;2.72;;;;;;;;;;5021318;28;20021;-68
2023/09/23 13:19:57;;;;;;;19.08;9.57;;;;;;;;;;5018793;28;20087;-69
2023/09/23 13:22:23;;;;;;;7.50;5.05;;;;;;;;;;5018834;28;20041;-69
2023/09/23 13:24:52;;;;;;;4.30;1.95;;;;;;;;;;5018478;28;20138;-68
2023/09/23 13:27:18;;;;;;;6.22;1.40;;;;;;;;;;5020368;28;20033;-68
2023/09/23 13:29:43;;;;;;;3.35;0.88;;;;;;;;;;5020219;28;20411;-68
2023/09/23 13:32:09;;;;;;;2.22;0.93;;;;;;;;;;5025819;28;20033;-68
2023/09/23 13:34:34;;;;;;;4.07;1.33;;;;;;;;;;5024306;28;20045;-68
2023/09/23 13:37:00;;;;;;;3.28;1.73;;;;;;;;;;5018581;28;20045;-69
2023/09/23 13:39:25;;;;;;;2.63;1.08;;;;;;;;;;5019436;28;20068;-69
2023/09/23 13:41:52;;;;;;;1.67;1.20;;;;;;;;;;5021097;28;20461;-69
2023/09/23 13:44:18;;;;;;;2.88;1.23;;;;;;;;;;5016785;28;20419;-68
2023/09/23 13:46:43;;;;;;;2.30;1.20;;;;;;;;;;5019417;28;20045;-68
2023/09/23 13:49:09;;;;;;;1.55;0.98;;;;;;;;;;5017712;28;20042;-67
2023/09/23 13:51:34;;;;;;;2.60;1.15;;;;;;;;;;5021346;28;20099;-68
2023/09/23 13:54:00;;;;;;;2.67;1.23;;;;;;;;;;5015574;28;20030;-70
2023/09/23 13:56:25;;;;;;;3.80;1.27;;;;;;;;;;5019473;28;20084;-70
2023/09/23 13:58:50;;;;;;;2.08;0.85;;;;;;;;;;5014945;28;20058;-70
2023/09/23 14:01:16;;;;;;;1.98;0.90;;;;;;;;;;5014761;28;20037;-70
2023/09/23 14:03:41;;;;;;;3.58;1.08;;;;;;;;;;5017176;28;20479;-70
2023/09/23 14:06:06;;;;;;;2.08;0.88;;;;;;;;;;5019357;28;20037;-69
2023/09/23 14:08:32;;;;;;;3.00;1.00;;;;;;;;;;5017633;28;20045;-72
2023/09/23 14:10:57;;;;;;;3.00;1.00;;;;;;;;;;5018432;28;20486;-69
2023/09/23 14:13:23;;;;;;;2.53;0.90;;;;;;;;;;5016901;28;20115;-70
2023/09/23 14:15:48;;;;;;;2.90;0.88;;;;;;;;;;5019392;28;20586;-70
2023/09/23 14:18:14;;;;;;;3.10;0.98;;;;;;;;;;5017770;28;20146;-70
2023/09/23 14:20:44;;;;;;;4.45;1.15;;;;;;;;;;5018858;28;20041;-70
2023/09/23 14:23:11;;;;;;;2.25;0.82;;;;;;;;;;5018534;28;20084;-70
2023/09/23 14:25:36;;;;;;;3.63;1.05;;;;;;;;;;5019455;28;20542;-70
2023/09/23 14:28:02;;;;;;;5.18;0.95;;;;;;;;;;5014867;28;20165;-70
2023/09/23 14:30:27;;;;;;;2.25;0.95;;;;;;;;;;5018184;28;20057;-70
2023/09/23 14:32:53;;;;;;;2.25;0.90;;;;;;;;;;5021064;28;20037;-69
2023/09/23 14:35:20;;;;;;;2.95;0.80;;;;;;;;;;5021797;28;20596;-70
2023/09/23 14:37:47;;;;;;;4.45;1.10;;;;;;;;;;5018760;28;20053;-70
2023/09/23 14:40:13;;;;;;;1.52;1.13;;;;;;;;;;5022755;28;20045;-70